Time;durP1;ratioP1;P1;durP2;ratioP2;P2;SDS_P1;SDS_P2;PMS_P1;PMS_P2;Temp;Humidity;BMP_temperature;BMP_pressure;BME280_temperature;BME280_humidity;BME280_pressure;Samples;Min_cycle;Max_cycle;Signal;HPM_P1;HPM_P2
2023/03/04 00:01:29;;;;;;;15.80;10.13;;;;;;;7.55;100.00;94508.97;5111089;28;20263;-56
2023/03/04 00:03:55;;;;;;;15.30;10.13;;;;;;;7.36;100.00;94508.72;5111257;28;20290;-57
2023/03/04 00:06:20;;;;;;;15.30;11.13;;;;;;;7.16;100.00;94494.22;5111108;28;20190;-56
2023/03/04 00:08:45;;;;;;;16.63;11.23;;;;;;;7.08;100.00;94486.41;5111088;28;20586;-55
2023/03/04 00:11:11;;;;;;;16.13;9.80;;;;;;;6.72;100.00;94444.44;5110922;28;20187;-58
2023/03/04 00:13:36;;;;;;;13.63;9.20;;;;;;;6.71;100.00;94458.78;5111044;28;20183;-57
2023/03/04 00:16:02;;;;;;;16.33;10.60;;;;;;;6.97;100.00;94463.66;5110878;28;20195;-58
2023/03/04 00:18:27;;;;;;;14.87;9.93;;;;;;;7.08;100.00;94476.28;5110837;28;20248;-56
2023/03/04 00:20:52;;;;;;;17.80;9.50;;;;;;;7.13;100.00;94469.19;5111015;28;20192;-56
2023/03/04 00:23:18;;;;;;;13.20;9.17;;;;;;;7.29;100.00;94475.47;5110925;28;20298;-56
2023/03/04 00:25:44;;;;;;;15.43;10.03;;;;;;;7.39;100.00;94499.16;5110624;28;20610;-56
2023/03/04 00:28:09;;;;;;;13.33;9.60;;;;;;;7.05;100.00;94496.75;5092687;28;20287;-56
2023/03/04 00:30:34;;;;;;;14.40;8.77;;;;;;;7.13;100.00;94479.28;5110706;28;20669;-56
2023/03/04 00:33:00;;;;;;;13.93;9.30;;;;;;;7.10;100.00;94474.44;5110912;28;20315;-55
2023/03/04 00:35:25;;;;;;;13.63;9.70;;;;;;;7.12;100.00;94478.47;5093365;28;20284;-57
2023/03/04 00:37:51;;;;;;;13.80;8.87;;;;;;;6.81;100.00;94458.13;5114040;28;20225;-57
2023/03/04 00:40:16;;;;;;;12.87;9.13;;;;;;;6.61;100.00;94436.81;5114323;28;20294;-55
2023/03/04 00:42:41;;;;;;;14.33;9.67;;;;;;;6.48;100.00;94431.88;5113804;28;20272;-56
2023/03/04 00:45:08;;;;;;;12.70;8.47;;;;;;;6.39;100.00;94436.75;5114026;28;20227;-59
2023/03/04 00:47:34;;;;;;;14.60;9.23;;;;;;;6.71;100.00;94445.34;5113913;28;20191;-59
2023/03/04 00:49:59;;;;;;;14.00;8.87;;;;;;;6.95;100.00;94465.50;5114345;28;20276;-56
2023/03/04 00:52:24;;;;;;;13.40;8.93;;;;;;;7.13;100.00;94469.19;5114065;28;20180;-57
2023/03/04 00:54:50;;;;;;;13.93;9.80;;;;;;;7.13;100.00;94480.06;5095770;28;20731;-56
2023/03/04 00:57:15;;;;;;;14.87;9.47;;;;;;;7.03;100.00;94468.25;5113797;28;20236;-59
2023/03/04 00:59:47;;;;;;;14.50;9.53;;;;;;;7.15;100.00;94465.59;5113950;28;20581;-57
2023/03/04 01:02:20;;;;;;;13.97;9.50;;;;;;;7.26;100.00;94492.63;5113967;28;20275;-56
2023/03/04 01:04:45;;;;;;;13.53;8.50;;;;;;;7.15;100.00;94488.34;5095282;28;20215;-58
2023/03/04 01:07:10;;;;;;;14.83;9.67;;;;;;;6.82;100.00;94458.00;5113683;28;20187;-58
2023/03/04 01:09:36;;;;;;;13.03;9.00;;;;;;;6.75;100.00;94450.06;5113907;28;20832;-58
2023/03/04 01:12:01;;;;;;;14.47;9.07;;;;;;;6.82;100.00;94439.50;5113626;28;20604;-59
2023/03/04 01:14:27;;;;;;;13.80;9.80;;;;;;;6.89;100.00;94453.31;5113918;28;20236;-58
2023/03/04 01:16:52;;;;;;;14.30;9.23;;;;;;;7.02;100.00;94456.53;5095369;28;20195;-58
2023/03/04 01:19:18;;;;;;;17.07;9.77;;;;;;;7.09;100.00;94460.22;5113485;28;20654;-58
2023/03/04 01:21:43;;;;;;;14.00;8.70;;;;;;;6.84;100.00;94437.66;5113645;28;20571;-59
2023/03/04 01:24:09;;;;;;;13.30;9.23;;;;;;;6.56;100.00;94414.44;5113465;28;20232;-57
2023/03/04 01:26:34;;;;;;;15.47;10.10;;;;;;;6.62;100.00;94411.47;5113544;28;20202;-56
2023/03/04 01:29:01;;;;;;;15.80;9.90;;;;;;;6.61;100.00;94425.00;5113223;28;20222;-55
2023/03/04 01:31:27;;;;;;;16.23;10.27;;;;;;;6.49;100.00;94417.50;5113239;28;20191;-58
2023/03/04 01:33:52;;;;;;;14.93;9.90;;;;;;;6.63;100.00;94415.59;5113418;28;20637;-56
2023/03/04 01:36:18;;;;;;;15.57;10.10;;;;;;;6.64;100.00;94417.22;5113320;28;20270;-58
2023/03/04 01:38:43;;;;;;;16.10;10.07;;;;;;;6.51;100.00;94413.97;5113368;28;20222;-58
2023/03/04 01:41:11;;;;;;;14.20;10.13;;;;;;;6.34;100.00;94398.44;5113279;28;20180;-56
2023/03/04 01:43:37;;;;;;;15.90;8.63;;;;;;;6.50;100.00;94416.59;5094632;28;20191;-58
2023/03/04 01:46:03;;;;;;;13.53;8.40;;;;;;;6.55;100.00;94412.81;5112608;28;20719;-56
2023/03/04 01:48:37;;;;;;;14.10;9.13;;;;;;;6.66;100.00;94417.09;5112144;28;20183;-56
2023/03/04 01:51:05;;;;;;;12.90;8.50;;;;;;;6.56;100.00;94421.22;5113139;28;20195;-55
2023/03/04 01:53:32;;;;;;;13.70;8.83;;;;;;;6.49;100.00;94427.59;5113133;28;20218;-56
2023/03/04 01:56:11;;;;;;;14.90;9.37;;;;;;;6.20;100.00;94403.69;5112954;28;20390;-55
2023/03/04 01:58:36;;;;;;;16.40;9.30;;;;;;;6.27;100.00;94399.78;5113065;28;20211;-55
2023/03/04 02:01:02;;;;;;;13.47;8.67;;;;;;;6.36;100.00;94397.38;5112806;28;20602;-57
2023/03/04 02:03:27;;;;;;;14.17;8.87;;;;;;;6.57;100.00;94405.13;5112933;28;20184;-58
2023/03/04 02:05:54;;;;;;;14.27;9.27;;;;;;;6.58;100.00;94415.16;5112885;28;20179;-58
2023/03/04 02:08:23;;;;;;;14.20;9.20;;;;;;;6.61;100.00;94425.00;5112863;28;20188;-56
2023/03/04 02:10:50;;;;;;;12.27;8.57;;;;;;;6.55;100.00;94439.78;5112458;28;20632;-55
2023/03/04 02:13:16;;;;;;;13.87;9.10;;;;;;;6.56;100.00;94446.47;5112595;28;20222;-56
2023/03/04 02:15:44;;;;;;;14.20;9.53;;;;;;;6.42;100.00;94427.25;5112516;28;20684;-58
2023/03/04 02:18:19;;;;;;;13.40;9.00;;;;;;;6.35;100.00;94432.84;5112591;28;20238;-56
2023/03/04 02:20:56;;;;;;;13.37;9.23;;;;;;;6.34;100.00;94400.97;5094237;28;20248;-58
2023/03/04 02:23:45;;;;;;;15.77;9.63;;;;;;;6.48;100.00;94431.88;5112487;28;20191;-58
2023/03/04 02:26:17;;;;;;;14.17;9.67;;;;;;;6.54;100.00;94428.09;5112531;28;20262;-59
2023/03/04 02:28:44;;;;;;;12.37;8.20;;;;;;;6.65;100.00;94423.88;5112199;28;20191;-55
2023/03/04 02:31:28;;;;;;;15.10;10.10;;;;;;;6.76;100.00;94436.53;5112386;28;20179;-57
2023/03/04 02:33:56;;;;;;;15.73;8.60;;;;;;;6.67;100.00;94418.69;5112667;28;20207;-58
2023/03/04 02:36:22;;;;;;;14.33;10.00;;;;;;;6.55;100.00;94430.50;5094061;28;20182;-55
2023/03/04 02:38:50;;;;;;;13.97;9.23;;;;;;;6.55;100.00;94427.16;5112388;28;20233;-55
2023/03/04 02:41:19;;;;;;;14.77;8.90;;;;;;;6.60;100.00;94420.06;5112448;28;20190;-57
2023/03/04 02:43:46;;;;;;;16.60;9.67;;;;;;;6.35;100.00;94410.13;5112473;28;20204;-56
2023/03/04 02:46:12;;;;;;;13.77;9.03;;;;;;;6.17;100.00;94394.59;5112227;28;20187;-57
2023/03/04 02:48:37;;;;;;;15.20;9.60;;;;;;;6.26;100.00;94411.59;5112196;28;20191;-56
2023/03/04 02:51:03;;;;;;;13.17;9.30;;;;;;;6.25;100.00;94404.13;5112218;28;20194;-57
2023/03/04 02:53:28;;;;;;;13.07;8.53;;;;;;;6.46;100.00;94403.41;5093863;28;20180;-56
2023/03/04 02:55:54;;;;;;;15.43;9.70;;;;;;;6.37;100.00;94415.88;5111948;28;20184;-55
2023/03/04 02:58:19;;;;;;;14.67;9.83;;;;;;;6.53;100.00;94414.66;5111332;28;20677;-56
2023/03/04 03:00:45;;;;;;;12.67;9.70;;;;;;;6.72;100.00;94417.47;5112005;28;20707;-59
2023/03/04 03:03:10;;;;;;;19.57;10.13;;;;;;;6.77;100.00;94440.66;5111958;28;20250;-55
2023/03/04 03:05:37;;;;;;;17.60;9.57;;;;;;;6.68;100.00;94438.81;5111933;28;20625;-56
2023/03/04 03:08:03;;;;;;;15.03;8.93;;;;;;;6.74;100.00;94442.59;5111893;28;20217;-59
2023/03/04 03:10:28;;;;;;;12.53;8.37;;;;;;;6.64;100.00;94434.09;5111700;28;20214;-60
2023/03/04 03:12:54;;;;;;;14.77;9.73;;;;;;;6.49;100.00;94420.84;5111642;28;20672;-59
2023/03/04 03:15:20;;;;;;;14.53;9.13;;;;;;;6.54;100.00;94405.38;5111642;28;20211;-59
2023/03/04 03:17:45;;;;;;;12.97;8.97;;;;;;;6.66;100.00;94417.91;5111604;28;20583;-57
2023/03/04 03:20:12;;;;;;;15.73;8.83;;;;;;;6.73;100.00;94408.94;5111600;28;20259;-56
2023/03/04 03:22:39;;;;;;;14.60;9.40;;;;;;;6.79;100.00;94426.19;5111545;28;20198;-55
2023/03/04 03:25:06;;;;;;;17.60;8.57;;;;;;;6.82;100.00;94452.94;5111439;28;20211;-56
2023/03/04 03:27:31;;;;;;;13.13;8.57;;;;;;;6.89;100.00;94446.50;5111496;28;20180;-55
2023/03/04 03:29:57;;;;;;;13.33;9.10;;;;;;;6.95;100.00;94453.63;5111710;28;20210;-58
2023/03/04 03:32:22;;;;;;;13.53;9.23;;;;;;;7.03;100.00;94443.78;5111475;28;20183;-58
2023/03/04 03:34:48;;;;;;;16.07;8.10;;;;;;;7.10;100.00;94460.09;5111693;28;20618;-55
2023/03/04 03:37:13;;;;;;;14.00;8.93;;;;;;;7.08;100.00;94454.34;5111356;28;20195;-58
2023/03/04 03:39:38;;;;;;;14.10;8.37;;;;;;;7.21;100.00;94471.94;5111310;28;20211;-56
2023/03/04 03:42:04;;;;;;;12.10;8.77;;;;;;;7.22;100.00;94476.06;5111484;28;20698;-56
2023/03/04 03:44:29;;;;;;;11.57;8.17;;;;;;;7.13;100.00;94462.38;5111363;28;20195;-54
2023/03/04 03:46:55;;;;;;;13.10;9.00;;;;;;;7.23;100.00;94480.22;5111177;28;20191;-56
2023/03/04 03:49:20;;;;;;;13.33;8.87;;;;;;;7.21;100.00;94471.94;5111129;28;20211;-55
2023/03/04 03:51:46;;;;;;;12.73;8.40;;;;;;;7.18;100.00;94460.34;5111215;28;20237;-55
2023/03/04 03:54:11;;;;;;;12.87;8.87;;;;;;;7.16;100.00;94474.81;5111335;28;20215;-59
2023/03/04 03:56:37;;;;;;;14.70;9.40;;;;;;;7.12;100.00;94458.25;5111083;28;20761;-56
2023/03/04 03:59:02;;;;;;;13.83;8.87;;;;;;;7.06;100.00;94446.09;5111274;28;20207;-56
2023/03/04 04:01:28;;;;;;;13.13;9.13;;;;;;;7.07;100.00;94450.19;5111122;28;20183;-56
2023/03/04 04:03:53;;;;;;;12.83;8.47;;;;;;;7.06;100.00;94453.66;5111000;28;20731;-59
2023/03/04 04:06:19;;;;;;;14.40;8.73;;;;;;;6.92;100.00;94425.28;5111028;28;20269;-56
2023/03/04 04:08:44;;;;;;;14.83;9.13;;;;;;;7.04;100.00;94449.63;5093015;28;20203;-56
2023/03/04 04:11:11;;;;;;;12.67;8.57;;;;;;;7.05;100.00;94446.97;5113407;28;20490;-54
2023/03/04 04:13:36;;;;;;;12.80;8.87;;;;;;;7.15;100.00;94462.28;5114468;28;20188;-57
2023/03/04 04:16:02;;;;;;;15.30;8.20;;;;;;;7.19;100.00;94468.72;5114466;28;20190;-55
2023/03/04 04:18:27;;;;;;;16.60;9.40;;;;;;;7.20;100.00;94476.19;5114530;28;20344;-55
2023/03/04 04:20:53;;;;;;;14.10;9.60;;;;;;;7.02;100.00;94448.94;5114465;28;20591;-55
2023/03/04 04:23:18;;;;;;;12.40;8.80;;;;;;;7.03;100.00;94448.03;5114494;28;20784;-56
2023/03/04 04:25:44;;;;;;;16.20;9.63;;;;;;;7.09;100.00;94452.63;5114273;28;20223;-54
2023/03/04 04:28:09;;;;;;;11.43;8.63;;;;;;;7.19;100.00;94464.44;5114152;28;20202;-58
2023/03/04 04:30:35;;;;;;;15.40;10.37;;;;;;;7.14;100.00;94456.41;5114253;28;20198;-58
2023/03/04 04:33:03;;;;;;;13.30;9.03;;;;;;;6.98;100.00;94439.97;5095948;28;20270;-56
2023/03/04 04:35:29;;;;;;;14.57;9.93;;;;;;;6.94;100.00;94444.47;5114091;28;20199;-57
2023/03/04 04:37:55;;;;;;;20.50;10.37;;;;;;;6.93;100.00;94447.09;5114007;28;20263;-55
2023/03/04 04:40:20;;;;;;;15.17;9.57;;;;;;;6.85;100.00;94449.41;5114251;28;20715;-55
2023/03/04 04:42:45;;;;;;;13.37;9.27;;;;;;;6.78;100.00;94428.81;5079034;28;20763;-59
2023/03/04 04:45:11;;;;;;;15.33;9.47;;;;;;;6.67;100.00;94390.91;5114193;28;20202;-60
2023/03/04 04:47:37;;;;;;;15.80;9.93;;;;;;;6.75;100.00;94399.53;5114219;28;20214;-60
2023/03/04 04:50:03;;;;;;;17.17;8.93;;;;;;;6.82;100.00;94411.72;5114214;28;20211;-55
2023/03/04 04:52:28;;;;;;;16.37;9.80;;;;;;;6.83;100.00;94415.88;5113990;28;20259;-57
2023/03/04 04:54:54;;;;;;;17.13;10.17;;;;;;;6.90;100.00;94422.06;5113952;28;20208;-55
2023/03/04 04:57:20;;;;;;;15.57;9.73;;;;;;;6.84;100.00;94452.81;5114017;28;20187;-55
2023/03/04 04:59:45;;;;;;;16.77;9.23;;;;;;;6.72;100.00;94470.50;5114150;28;20215;-56
2023/03/04 05:02:10;;;;;;;15.80;9.27;;;;;;;6.53;100.00;94431.53;5113907;28;20179;-58
2023/03/04 05:04:36;;;;;;;13.10;8.50;;;;;;;6.51;100.00;94464.47;5113976;28;20208;-56
2023/03/04 05:07:01;;;;;;;15.23;9.47;;;;;;;6.51;100.00;94483.84;5113918;28;20197;-55
2023/03/04 05:09:27;;;;;;;13.50;8.73;;;;;;;6.57;100.00;94490.97;5113863;28;20215;-55
2023/03/04 05:11:52;;;;;;;17.53;9.40;;;;;;;6.56;100.00;94485.16;5113769;28;20648;-56
2023/03/04 05:14:18;;;;;;;12.63;8.87;;;;;;;6.52;100.00;94476.19;5113548;28;20257;-58
2023/03/04 05:16:43;;;;;;;13.23;8.47;;;;;;;6.53;100.00;94474.44;5113741;28;20183;-56
2023/03/04 05:19:08;;;;;;;12.93;8.50;;;;;;;6.69;100.00;94493.44;5113691;28;20214;-55
2023/03/04 05:21:34;;;;;;;13.93;9.03;;;;;;;6.75;100.00;94479.56;5113233;28;20183;-56
2023/03/04 05:23:59;;;;;;;15.20;8.30;;;;;;;6.70;100.00;94502.63;5113288;28;20212;-56
2023/03/04 05:26:24;;;;;;;14.73;8.37;;;;;;;6.82;100.00;94535.50;5113540;28;20184;-56
2023/03/04 05:28:50;;;;;;;13.13;8.70;;;;;;;6.95;100.00;94541.28;5113506;28;20207;-56
2023/03/04 05:31:16;;;;;;;13.83;8.10;;;;;;;6.99;100.00;94558.63;5113562;28;20211;-59
2023/03/04 05:33:42;;;;;;;13.47;8.10;;;;;;;7.07;100.00;94573.25;5112976;28;20198;-56
2023/03/04 05:36:08;;;;;;;14.10;7.90;;;;;;;7.02;100.00;94552.53;5113249;28;20676;-58
2023/03/04 05:38:34;;;;;;;15.20;8.00;;;;;;;7.08;100.00;94587.47;5113307;28;20204;-58
2023/03/04 05:41:03;;;;;;;11.73;7.90;;;;;;;7.10;100.00;94583.13;5113078;28;20192;-58
2023/03/04 05:43:29;;;;;;;12.33;8.67;;;;;;;7.00;100.00;94559.44;5112999;28;20196;-58
2023/03/04 05:45:54;;;;;;;14.83;8.57;;;;;;;6.94;100.00;94532.91;5113282;28;20190;-55
2023/03/04 05:48:20;;;;;;;15.30;8.77;;;;;;;6.83;100.00;94486.59;5094739;28;20343;-59
2023/03/04 05:50:46;;;;;;;13.03;8.20;;;;;;;6.77;100.00;94495.41;5113018;28;20199;-55
2023/03/04 05:53:11;;;;;;;17.67;10.30;;;;;;;6.88;100.00;94489.56;5113286;28;20187;-56
2023/03/04 05:55:36;;;;;;;17.47;8.77;;;;;;;6.98;100.00;94486.28;5112899;28;20298;-56
2023/03/04 05:58:02;;;;;;;17.17;9.27;;;;;;;6.78;100.00;94474.28;5113020;28;20315;-56
2023/03/04 06:00:27;;;;;;;14.60;9.33;;;;;;;6.76;100.00;94451.69;5112765;28;20211;-56
2023/03/04 06:02:53;;;;;;;13.33;9.07;;;;;;;6.76;100.00;94469.34;5112701;28;20233;-56
2023/03/04 06:05:18;;;;;;;12.73;8.50;;;;;;;6.87;100.00;94465.25;5112658;28;20213;-56
2023/03/04 06:07:44;;;;;;;16.27;9.40;;;;;;;6.87;100.00;94470.31;5112849;28;20222;-57
2023/03/04 06:10:12;;;;;;;12.47;8.37;;;;;;;6.86;100.00;94459.38;5112689;28;20215;-57
2023/03/04 06:12:38;;;;;;;14.33;9.23;;;;;;;6.98;100.00;94472.81;5112701;28;20191;-57
2023/03/04 06:15:04;;;;;;;15.30;9.80;;;;;;;7.14;100.00;94493.53;5112533;28;20327;-57
2023/03/04 06:17:31;;;;;;;18.47;9.70;;;;;;;7.35;100.00;94512.16;5112502;28;20229;-57
2023/03/04 06:19:57;;;;;;;18.70;9.00;;;;;;;7.40;100.00;94528.59;5112453;28;20223;-59
2023/03/04 06:22:22;;;;;;;13.40;9.60;;;;;;;7.46;100.00;94537.44;5112611;28;20186;-55
2023/03/04 06:24:48;;;;;;;17.97;10.77;;;;;;;7.41;100.00;94542.84;5112777;28;20234;-56
2023/03/04 06:27:15;;;;;;;17.53;11.33;;;;;;;7.40;100.00;94531.13;5112538;28;20192;-59
2023/03/04 06:29:41;;;;;;;14.27;9.87;;;;;;;7.34;100.00;94520.66;5112735;28;20237;-60
2023/03/04 06:32:07;;;;;;;18.50;10.00;;;;;;;7.36;100.00;94511.25;5112472;28;20172;-59
2023/03/04 06:34:33;;;;;;;13.03;8.00;;;;;;;7.48;100.00;94550.78;5111776;28;20203;-59
2023/03/04 06:36:59;;;;;;;12.60;7.03;;;;;;;7.52;100.00;94587.56;5112255;28;20171;-59
2023/03/04 06:39:24;;;;;;;14.13;7.03;;;;;;;7.33;100.00;94574.69;5112194;28;20242;-58
2023/03/04 06:41:50;;;;;;;10.43;7.53;;;;;;;7.19;100.00;94531.91;5112150;28;20225;-60
2023/03/04 06:44:15;;;;;;;11.13;7.43;;;;;;;7.24;100.00;94524.78;5112169;28;20211;-55
2023/03/04 06:46:41;;;;;;;15.33;7.87;;;;;;;7.45;100.00;94586.44;5112138;28;20605;-58
2023/03/04 06:49:06;;;;;;;14.37;8.80;;;;;;;7.29;100.00;94566.50;5112332;28;20208;-54
2023/03/04 06:51:32;;;;;;;11.87;8.10;;;;;;;7.10;100.00;94540.16;5112331;28;20179;-61
2023/03/04 06:53:57;;;;;;;15.27;8.10;;;;;;;7.06;100.00;94523.59;5112032;28;20373;-60
2023/03/04 06:56:23;;;;;;;16.40;8.53;;;;;;;6.97;100.00;94512.44;5111977;28;20191;-59
2023/03/04 06:58:48;;;;;;;12.10;8.23;;;;;;;7.04;100.00;94527.97;5112019;28;20218;-59
2023/03/04 07:01:23;;;;;;;11.77;7.33;;;;;;;7.18;100.00;94558.91;5112169;28;20207;-57
2023/03/04 07:03:50;;;;;;;12.23;8.03;;;;;;;7.25;100.00;94551.69;5111878;28;20202;-56
2023/03/04 07:06:17;;;;;;;17.90;8.53;;;;;;;7.24;100.00;94562.72;5111935;28;20187;-56
2023/03/04 07:08:43;;;;;;;14.90;8.20;;;;;;;6.95;100.00;94490.75;5112028;28;20215;-59
2023/03/04 07:11:09;;;;;;;20.13;9.10;;;;;;;7.20;100.00;94592.47;5111635;28;20219;-58
2023/03/04 07:13:37;;;;;;;14.07;8.67;;;;;;;7.07;100.00;94547.97;5111853;28;20183;-59
2023/03/04 07:16:14;;;;;;;13.87;7.93;;;;;;;7.09;100.00;94558.78;5111533;28;20191;-60
2023/03/04 07:18:40;;;;;;;13.33;8.53;;;;;;;7.18;100.00;94558.09;5111754;28;20264;-57
2023/03/04 07:21:06;;;;;;;21.53;10.03;;;;;;;7.16;100.00;94558.22;5111678;28;20602;-55
2023/03/04 07:23:33;;;;;;;16.13;10.43;;;;;;;7.10;100.00;94553.59;5111719;28;20198;-59
2023/03/04 07:25:58;;;;;;;13.47;8.87;;;;;;;7.11;100.00;94544.31;5111617;28;20266;-59
2023/03/04 07:28:24;;;;;;;20.83;10.93;;;;;;;7.01;100.00;94551.72;5111598;28;20187;-56
2023/03/04 07:30:49;;;;;;;17.90;10.97;;;;;;;6.95;100.00;94553.94;5111632;28;20229;-59
2023/03/04 07:33:15;;;;;;;16.20;10.20;;;;;;;6.99;100.00;94533.34;5111820;28;20184;-58
2023/03/04 07:35:41;;;;;;;18.53;10.73;;;;;;;6.97;100.00;94544.50;5111574;28;20214;-56
2023/03/04 07:38:07;;;;;;;21.13;11.60;;;;;;;7.03;100.00;94539.00;5111524;28;20264;-55
2023/03/04 07:40:32;;;;;;;15.70;10.47;;;;;;;7.07;100.00;94522.72;5111341;28;20715;-55
2023/03/04 07:42:58;;;;;;;16.10;10.63;;;;;;;7.20;100.00;94553.72;5111370;28;20179;-56
2023/03/04 07:45:25;;;;;;;20.17;10.87;;;;;;;7.19;100.00;94542.03;5111226;28;20255;-55
2023/03/04 07:47:51;;;;;;;17.57;10.63;;;;;;;7.32;100.00;94522.50;5111239;28;20183;-59
2023/03/04 07:50:17;;;;;;;23.70;11.70;;;;;;;7.40;100.00;94528.59;5111195;28;20561;-59
2023/03/04 07:52:45;;;;;;;20.97;11.57;;;;;;;7.39;100.00;94561.59;5110776;28;20180;-59
2023/03/04 07:55:12;;;;;;;18.63;10.57;;;;;;;7.28;100.00;94536.28;5110905;28;20272;-59
2023/03/04 07:57:38;;;;;;;17.27;11.50;;;;;;;7.09;100.00;94530.97;5111094;28;20186;-59
2023/03/04 08:00:04;;;;;;;22.30;12.20;;;;;;;7.04;100.00;94517.88;5111106;28;20250;-56
2023/03/04 08:02:30;;;;;;;22.10;11.57;;;;;;;7.11;100.00;94488.72;5111014;28;20235;-54
2023/03/04 08:04:55;;;;;;;16.60;11.47;;;;;;;7.03;100.00;94476.63;5111162;28;20207;-56
2023/03/04 08:07:21;;;;;;;20.17;12.37;;;;;;;7.12;100.00;94454.91;5110985;28;20179;-54
2023/03/04 08:09:47;;;;;;;16.97;11.13;;;;;;;7.15;100.00;94457.25;5108647;22;20223;-57
2023/03/04 08:12:12;;;;;;;19.30;11.87;;;;;;;7.28;100.00;94458.72;5090648;28;20565;-55
2023/03/04 08:14:38;;;;;;;19.60;12.27;;;;;;;7.45;100.00;94530.78;5090333;28;20208;-55
2023/03/04 08:17:03;;;;;;;16.20;11.57;;;;;;;7.51;100.00;94548.03;5090632;28;20661;-58
2023/03/04 08:19:29;;;;;;;21.87;12.43;;;;;;;7.53;100.00;94538.63;5090224;28;20670;-59
2023/03/04 08:21:54;;;;;;;21.33;12.17;;;;;;;7.48;100.00;94536.41;5090581;28;20176;-55
2023/03/04 08:24:19;;;;;;;22.10;12.47;;;;;;;7.48;100.00;94520.44;5090824;28;20289;-56
2023/03/04 08:26:47;;;;;;;22.77;13.87;;;;;;;7.57;100.00;94525.59;5090493;28;20630;-55
2023/03/04 08:29:19;;;;;;;22.10;13.70;;;;;;;7.47;100.00;94501.13;5090588;28;20272;-55
2023/03/04 08:31:45;;;;;;;21.03;13.77;;;;;;;7.62;100.00;94462.03;5090391;28;20184;-56
2023/03/04 08:34:13;;;;;;;20.30;12.13;;;;;;;7.83;100.00;94484.88;5090385;28;20223;-56
2023/03/04 08:36:39;;;;;;;23.30;13.33;;;;;;;7.92;100.00;94492.56;5090136;28;20188;-55
2023/03/04 08:39:06;;;;;;;20.40;13.07;;;;;;;8.06;100.00;94499.91;5090204;28;20216;-55
2023/03/04 08:41:31;;;;;;;22.73;13.70;;;;;;;8.24;100.00;94520.47;5090254;28;20184;-59
2023/03/04 08:43:58;;;;;;;21.40;13.40;;;;;;;8.21;100.00;94511.38;5089762;28;20219;-60
2023/03/04 08:46:24;;;;;;;27.10;13.73;;;;;;;8.23;100.00;94556.84;5071675;28;20316;-59
2023/03/04 08:48:50;;;;;;;21.03;13.73;;;;;;;8.40;100.00;94552.09;5071757;28;20371;-58
2023/03/04 08:51:15;;;;;;;21.37;13.67;;;;;;;8.31;100.00;94546.94;5090137;28;20192;-57
2023/03/04 08:53:41;;;;;;;20.33;13.97;;;;;;;8.41;100.00;94579.06;5090116;28;20242;-55
2023/03/04 08:56:07;;;;;;;22.67;13.43;;;;;;;8.39;100.00;94568.22;5090830;28;20184;-57
2023/03/04 08:58:33;;;;;;;27.37;15.30;;;;;;;8.23;100.00;94550.06;5093388;28;20749;-57
2023/03/04 09:01:00;;;;;;;25.93;15.23;;;;;;;8.45;100.00;94551.75;5093383;28;20242;-57
2023/03/04 09:03:26;;;;;;;21.67;13.60;;;;;;;8.32;100.00;94553.63;5093282;28;20207;-57
2023/03/04 09:05:52;;;;;;;25.33;14.80;;;;;;;8.54;100.00;94562.91;5093417;28;20196;-57
2023/03/04 09:08:18;;;;;;;22.30;15.13;;;;;;;8.57;100.00;94557.56;5093355;28;20207;-56
2023/03/04 09:10:44;;;;;;;23.73;14.87;;;;;;;8.66;100.00;94559.41;5075392;28;20208;-55
2023/03/04 09:13:11;;;;;;;25.93;16.67;;;;;;;8.76;100.00;94593.22;5093435;28;20271;-59
2023/03/04 09:15:42;;;;;;;23.73;15.10;;;;;;;8.71;100.00;94575.03;5093217;28;20799;-55
2023/03/04 09:18:08;;;;;;;22.97;14.80;;;;;;;8.85;100.00;94598.38;5092552;28;20292;-55
2023/03/04 09:20:34;;;;;;;22.70;14.90;;;;;;;8.89;100.00;94592.13;5092542;28;20208;-55
2023/03/04 09:23:00;;;;;;;23.27;14.27;;;;;;;8.82;100.00;94580.06;5073964;28;20202;-56
2023/03/04 09:25:25;;;;;;;22.03;14.53;;;;;;;8.85;100.00;94587.41;5073857;28;20243;-56
2023/03/04 09:27:51;;;;;;;20.67;13.33;;;;;;;8.84;100.00;94598.50;5092483;28;20673;-55
2023/03/04 09:30:17;;;;;;;20.90;12.33;;;;;;;8.82;100.00;94645.97;5092428;28;20204;-58
2023/03/04 09:32:42;;;;;;;20.70;13.83;;;;;;;8.71;100.00;94595.31;5091462;28;20192;-54
2023/03/04 09:35:08;;;;;;;17.90;12.07;;;;;;;8.75;100.00;94638.03;5058361;28;20265;-56
2023/03/04 09:37:34;;;;;;;19.73;12.90;;;;;;;8.78;100.00;94621.78;5093229;28;20653;-56
2023/03/04 09:40:00;;;;;;;20.37;13.63;;;;;;;8.83;100.00;94607.00;5092991;28;20240;-55
2023/03/04 09:42:49;;;;;;;21.67;13.17;;;;;;;8.86;100.00;94647.34;5092842;28;20663;-55
2023/03/04 09:45:19;;;;;;;20.10;12.50;;;;;;;8.95;100.00;94685.44;5092057;28;20292;-55
2023/03/04 09:47:46;;;;;;;19.53;11.73;;;;;;;8.92;100.00;94682.34;5092739;28;20188;-57
2023/03/04 09:50:12;;;;;;;17.73;11.57;;;;;;;8.74;100.00;94649.09;5092700;28;20215;-55
2023/03/04 09:52:56;;;;;;;16.03;11.07;;;;;;;8.81;100.00;94594.47;5092984;28;20189;-56
2023/03/04 09:55:34;;;;;;;18.40;12.03;;;;;;;8.84;100.00;94589.19;5092868;28;20412;-60
2023/03/04 09:58:14;;;;;;;19.33;12.60;;;;;;;8.99;100.00;94599.81;5092767;28;20222;-57
2023/03/04 10:00:40;;;;;;;23.60;12.17;;;;;;;8.96;100.00;94641.44;5092657;28;20203;-56
2023/03/04 10:03:12;;;;;;;22.70;13.70;;;;;;;9.03;100.00;94632.41;5092688;28;20546;-56
2023/03/04 10:05:59;;;;;;;18.30;12.00;;;;;;;9.11;100.00;94634.34;5092453;28;20200;-59
2023/03/04 10:08:37;;;;;;;20.93;12.93;;;;;;;9.21;100.00;94620.81;5073058;28;20261;-55
2023/03/04 10:11:11;;;;;;;19.83;12.63;;;;;;;8.92;100.00;94596.16;5092610;28;20271;-56
2023/03/04 10:13:52;;;;;;;22.93;13.10;;;;;;;9.18;100.00;94630.41;5092517;28;20191;-55
2023/03/04 10:16:21;;;;;;;23.10;12.73;;;;;;;9.42;100.00;94623.34;5092466;28;20188;-55
2023/03/04 10:19:17;;;;;;;19.70;12.37;;;;;;;9.45;100.00;94648.50;5092438;28;20212;-56
2023/03/04 10:21:48;;;;;;;18.37;12.97;;;;;;;9.14;100.00;94655.19;5092248;28;20191;-58
2023/03/04 10:24:21;;;;;;;20.03;11.97;;;;;;;9.19;100.00;94683.53;5074155;28;20223;-56
2023/03/04 10:27:00;;;;;;;24.80;13.17;;;;;;;9.37;100.00;94630.56;5092402;28;20192;-55
2023/03/04 10:29:28;;;;;;;27.03;14.27;;;;;;;9.16;100.00;94605.16;5092352;28;20739;-55
2023/03/04 10:31:55;;;;;;;24.00;15.17;;;;;;;8.97;100.00;94551.78;5092100;28;20176;-55
2023/03/04 10:34:21;;;;;;;22.97;15.30;;;;;;;9.00;100.00;94540.59;5073942;28;20272;-55
2023/03/04 10:36:49;;;;;;;19.43;13.87;;;;;;;9.17;100.00;94553.50;5092027;28;20253;-56
2023/03/04 10:39:23;;;;;;;23.60;14.83;;;;;;;9.46;100.00;94557.94;5091968;28;20255;-56
2023/03/04 10:42:20;;;;;;;22.53;13.67;;;;;;;9.22;100.00;94609.75;5092039;28;20210;-59
2023/03/04 10:44:51;;;;;;;23.23;13.10;;;;;;;9.13;100.00;94591.94;5077733;28;20231;-59
2023/03/04 10:47:17;;;;;;;22.27;14.10;;;;;;;9.39;100.00;94588.09;5092023;28;20172;-60
2023/03/04 10:49:52;;;;;;;21.60;13.57;;;;;;;9.49;100.00;94603.38;5092134;28;20342;-59
2023/03/04 10:52:29;;;;;;;21.60;12.87;;;;;;;9.58;100.00;94588.19;5091860;28;20188;-59
2023/03/04 10:55:02;;;;;;;24.97;14.60;;;;;;;9.55;100.00;94600.34;5091732;28;20219;-59
2023/03/04 10:57:39;;;;;;;24.70;14.07;;;;;;;9.79;100.00;94586.44;5091559;28;20217;-59
2023/03/04 11:00:32;;;;;;;23.77;13.70;;;;;;;10.05;100.00;94628.25;5091423;28;20219;-60
2023/03/04 11:03:22;;;;;;;21.57;14.13;;;;;;;10.23;100.00;94599.72;5091700;28;20280;-59
2023/03/04 11:05:48;;;;;;;19.83;12.13;;;;;;;10.54;100.00;94619.09;5091510;28;20265;-63
2023/03/04 11:08:21;;;;;;;24.40;14.50;;;;;;;10.60;100.00;94682.91;5073416;28;20581;-60
2023/03/04 11:10:48;;;;;;;21.73;12.50;;;;;;;10.43;100.00;94647.94;5091282;28;20216;-60
2023/03/04 11:13:14;;;;;;;19.77;13.63;;;;;;;10.49;100.00;94641.53;5091548;28;20184;-60
2023/03/04 11:16:02;;;;;;;20.63;14.07;;;;;;;10.65;100.00;94657.91;5091251;28;20250;-60
2023/03/04 11:18:43;;;;;;;32.33;14.00;;;;;;;10.80;100.00;94654.06;5091414;28;20220;-60
2023/03/04 11:21:16;;;;;;;24.73;13.90;;;;;;;10.78;100.00;94607.63;5073294;28;20223;-59
2023/03/04 11:24:01;;;;;;;21.40;13.03;;;;;;;10.87;100.00;94617.00;5091567;28;20208;-59